Terminal Aerodrome Forecast
Issued by NWS Shreveport, LA

Home | Current Version | Previous Version | Text Only | Print | Product List | Glossary On
Versions: 1 2 3 4 5 6 7 8 9 10 11 12 13 14 15 16 17 18 19
000
FTUS44 KSHV 312331
TAFTXK
TAF
KTXK 312331Z 0100/0124 VRB04KT P6SM VCTS BKN040CB
      TEMPO 0100/0104 2SM TSRA BR BKN020CB
     FM010400 VRB03KT P6SM SCT045 BKN080
     FM010600 VRB03KT P6SM SCT045 BKN170 BKN250
      TEMPO 0110/0113 5SM BR
     FM011400 VRB04KT P6SM SCT015 BKN150 BKN250
     FM011600 13004KT P6SM SCT030 BKN150 BKN250
     FM011800 12005KT P6SM SCT040 BKN150 BKN250
     FM012100 11005KT P6SM VCTS SCT045CB=

USA.gov is the U.S. government's official web portal to all federal, state and local government web resources and services.